Time;durP1;ratioP1;P1;durP2;ratioP2;P2;SDS_P1;SDS_P2;PMS_P1;PMS_P2;Temp;Humidity;BMP_temperature;BMP_pressure;BME280_temperature;BME280_humidity;BME280_pressure;Samples;Min_cycle;Max_cycle;Signal;HPM_P1;HPM_P2
2022/01/27 00:02:18;;;;;;;42.13;18.77;;;6.80;72.20;;;;;;4909717;29;20679;-86
2022/01/27 00:04:52;;;;;;;35.13;16.35;;;6.70;72.30;;;;;;4935366;29;20685;-87
2022/01/27 00:07:18;;;;;;;39.65;18.10;;;6.80;72.40;;;;;;4935458;29;20721;-87
2022/01/27 00:10:03;;;;;;;32.00;17.05;;;6.90;72.40;;;;;;4935947;29;20278;-87
2022/01/27 00:12:29;;;;;;;32.70;15.80;;;7.00;72.20;;;;;;4938526;29;20586;-87
2022/01/27 00:15:07;;;;;;;32.93;16.23;;;6.90;72.30;;;;;;4940508;29;20181;-87
2022/01/27 00:17:38;;;;;;;43.45;18.63;;;6.90;72.40;;;;;;4954422;29;20181;-88
2022/01/27 00:20:05;;;;;;;37.80;18.05;;;6.90;72.30;;;;;;4955081;29;20579;-87
2022/01/27 00:22:30;;;;;;;37.38;16.48;;;6.90;72.30;;;;;;4943271;29;20174;-87
2022/01/27 00:24:56;;;;;;;39.80;17.43;;;6.80;72.20;;;;;;4948883;29;20192;-87
2022/01/27 00:27:22;;;;;;;39.93;17.20;;;6.70;72.30;;;;;;4949780;29;20248;-87
2022/01/27 00:29:47;;;;;;;31.43;16.67;;;6.60;72.30;;;;;;4948666;29;20429;-88
2022/01/27 00:32:13;;;;;;;31.70;16.23;;;6.70;72.60;;;;;;4948428;29;20188;-88
2022/01/27 00:34:44;;;;;;;41.13;15.90;;;6.60;72.40;;;;;;4947647;29;20684;-87
2022/01/27 00:37:10;;;;;;;26.95;14.73;;;6.50;72.70;;;;;;4950582;29;20250;-87
2022/01/27 00:39:35;;;;;;;34.77;15.43;;;6.70;73.00;;;;;;4944131;29;20193;-87
2022/01/27 00:42:01;;;;;;;30.90;14.70;;;6.80;72.80;;;;;;4938626;29;20630;-87
2022/01/27 00:44:27;;;;;;;35.00;15.50;;;6.80;72.50;;;;;;4938132;29;20192;-87
2022/01/27 00:46:52;;;;;;;34.93;16.40;;;6.90;72.60;;;;;;4940809;29;20473;-87
2022/01/27 00:49:18;;;;;;;29.70;14.83;;;6.90;72.40;;;;;;4957525;29;20177;-87
2022/01/27 00:51:46;;;;;;;39.83;17.27;;;6.90;72.50;;;;;;4957799;28;20205;-87
2022/01/27 00:54:19;;;;;;;36.78;16.13;;;7.10;72.50;;;;;;4958562;29;20184;-87
2022/01/27 00:56:58;;;;;;;39.15;16.95;;;7.10;72.20;;;;;;4962809;29;20175;-87
2022/01/27 01:02:14;;;;;;;33.78;15.50;;;7.00;72.30;;;;;;4945754;28;20217;-87
2022/01/27 01:04:44;;;;;;;32.10;16.73;;;7.00;72.30;;;;;;4942085;29;20221;-88
2022/01/27 01:07:11;;;;;;;36.47;16.88;;;6.90;72.40;;;;;;4941481;29;20200;-87
2022/01/27 01:14:47;;;;;;;30.83;16.27;;;6.70;73.10;;;;;;4938991;29;20165;-88
2022/01/27 01:20:07;;;;;;;38.33;16.20;;;6.80;73.00;;;;;;4939570;29;20614;-87
2022/01/27 01:30:58;;;;;;;35.90;14.93;;;6.80;73.00;;;;;;4939622;29;20200;-87
2022/01/27 01:33:31;;;;;;;29.90;15.63;;;6.80;73.10;;;;;;4937475;29;20177;-87
2022/01/27 01:36:05;;;;;;;28.40;15.82;;;6.80;73.20;;;;;;4937797;29;20188;-87
2022/01/27 01:38:31;;;;;;;35.40;16.02;;;7.00;73.30;;;;;;4938153;29;20177;-87
2022/01/27 01:40:57;;;;;;;30.93;16.93;;;6.80;73.10;;;;;;4937836;29;20417;-87
2022/01/27 01:43:24;;;;;;;37.70;18.58;;;6.90;73.30;;;;;;4939120;29;20177;-87
2022/01/27 01:45:49;;;;;;;36.00;16.58;;;6.90;73.40;;;;;;4937838;29;20207;-87
2022/01/27 01:48:16;;;;;;;29.53;14.77;;;6.80;73.20;;;;;;4938046;29;20721;-87
2022/01/27 01:50:42;;;;;;;31.65;16.88;;;6.90;73.40;;;;;;4938220;29;20445;-86
2022/01/27 01:53:08;;;;;;;33.40;17.10;;;6.80;73.30;;;;;;4938919;29;20652;-87
2022/01/27 01:55:34;;;;;;;32.03;15.10;;;6.70;73.70;;;;;;4941697;29;20191;-87
2022/01/27 01:58:00;;;;;;;32.50;15.20;;;6.80;73.80;;;;;;4944072;29;20432;-87
2022/01/27 02:00:27;;;;;;;28.00;15.07;;;6.80;73.90;;;;;;4949035;29;20471;-87
2022/01/27 02:02:54;;;;;;;41.45;15.70;;;6.80;73.80;;;;;;4948344;29;20440;-87
2022/01/27 02:05:24;;;;;;;30.58;15.48;;;6.80;73.70;;;;;;4944927;29;20620;-86
2022/01/27 02:19:21;;;;;;;30.85;16.25;;;6.60;75.00;;;;;;4936868;29;20243;-87
2022/01/27 02:21:58;;;;;;;31.40;15.02;;;6.70;75.10;;;;;;4937530;29;20669;-88
2022/01/27 02:24:28;;;;;;;43.00;17.80;;;6.70;75.00;;;;;;4944499;29;20169;-87
2022/01/27 02:26:55;;;;;;;32.47;14.88;;;6.60;74.90;;;;;;4957921;29;20204;-87
2022/01/27 02:29:22;;;;;;;33.67;16.05;;;6.50;75.10;;;;;;4939245;29;20193;-87
2022/01/27 02:31:51;;;;;;;39.72;15.63;;;6.70;75.30;;;;;;4951233;29;20205;-87
2022/01/27 02:34:17;;;;;;;34.10;15.65;;;6.70;75.20;;;;;;4937696;29;20174;-87
2022/01/27 02:36:42;;;;;;;32.70;15.97;;;6.60;75.30;;;;;;4936107;29;20713;-87
2022/01/27 02:39:09;;;;;;;29.33;17.17;;;6.60;75.30;;;;;;4937286;29;20278;-86
2022/01/27 02:41:56;;;;;;;42.60;15.52;;;6.80;75.20;;;;;;4936609;29;20216;-87
2022/01/27 02:44:47;;;;;;;36.67;16.05;;;6.70;75.00;;;;;;4936001;29;20184;-87
2022/01/27 02:47:15;;;;;;;31.35;17.05;;;6.80;75.20;;;;;;4936145;29;20284;-87
2022/01/27 02:49:42;;;;;;;35.30;16.80;;;6.60;75.20;;;;;;4937207;29;20642;-87
2022/01/27 02:52:08;;;;;;;38.38;16.00;;;6.60;75.50;;;;;;4941922;29;20209;-87
2022/01/27 02:54:35;;;;;;;36.70;17.05;;;6.70;75.40;;;;;;4941985;29;20185;-87
2022/01/27 02:57:00;;;;;;;35.72;15.70;;;6.60;75.50;;;;;;4938035;29;20229;-88
2022/01/27 02:59:27;;;;;;;38.70;16.00;;;6.50;75.60;;;;;;4937624;29;20196;-88
2022/01/27 03:01:53;;;;;;;31.98;16.17;;;6.40;75.80;;;;;;4938477;29;20469;-88
2022/01/27 03:04:20;;;;;;;35.83;15.73;;;6.40;75.90;;;;;;4946263;29;20268;-88
2022/01/27 03:06:47;;;;;;;30.83;14.85;;;6.50;76.20;;;;;;4936650;29;20284;-87
2022/01/27 03:09:13;;;;;;;36.50;16.15;;;6.50;76.10;;;;;;4936760;29;20185;-87
2022/01/27 03:11:45;;;;;;;37.15;14.75;;;6.60;76.00;;;;;;4936589;29;20197;-87
2022/01/27 03:14:13;;;;;;;29.33;15.45;;;6.60;75.90;;;;;;4937223;29;20721;-88
2022/01/27 03:16:39;;;;;;;33.08;15.27;;;6.60;76.00;;;;;;4936199;29;20192;-87
2022/01/27 03:19:05;;;;;;;28.25;13.80;;;6.60;76.00;;;;;;4936385;29;20737;-87
2022/01/27 03:21:31;;;;;;;29.50;14.43;;;6.70;76.00;;;;;;4936196;29;20236;-87
2022/01/27 03:23:58;;;;;;;26.90;14.03;;;6.60;76.00;;;;;;4939124;29;20700;-87
2022/01/27 03:26:25;;;;;;;25.83;12.98;;;6.60;76.10;;;;;;4941612;29;20224;-88
2022/01/27 03:28:51;;;;;;;30.65;13.60;;;6.60;76.00;;;;;;4943993;29;20194;-88
2022/01/27 03:31:16;;;;;;;33.80;14.53;;;6.50;76.10;;;;;;4943766;29;20197;-87
2022/01/27 03:33:42;;;;;;;38.00;14.67;;;6.50;76.10;;;;;;4949983;29;20181;-89
2022/01/27 03:36:09;;;;;;;25.92;12.63;;;6.50;76.20;;;;;;4954513;29;20180;-87
2022/01/27 03:38:35;;;;;;;26.77;13.80;;;6.40;76.30;;;;;;4947365;29;20188;-87
2022/01/27 03:41:05;;;;;;;29.73;14.00;;;6.50;76.50;;;;;;4955089;28;20267;-88
2022/01/27 03:43:31;;;;;;;41.15;15.27;;;6.50;76.60;;;;;;4954640;29;20868;-88
2022/01/27 03:45:57;;;;;;;26.73;13.27;;;6.70;76.50;;;;;;4955207;28;20274;-88
2022/01/27 03:48:22;;;;;;;34.43;13.80;;;6.80;76.30;;;;;;4958607;29;20264;-88
2022/01/27 03:50:48;;;;;;;29.53;13.87;;;6.70;76.20;;;;;;4958930;28;20196;-88
2022/01/27 03:53:16;;;;;;;30.40;14.37;;;6.80;76.20;;;;;;4958493;29;20184;-88
2022/01/27 03:55:43;;;;;;;24.35;12.93;;;6.60;76.10;;;;;;4958701;29;20189;-88
2022/01/27 03:58:09;;;;;;;37.60;15.77;;;6.70;76.30;;;;;;4958778;29;20239;-89
2022/01/27 04:00:35;;;;;;;29.63;14.67;;;6.60;76.30;;;;;;4955060;28;20239;-88
2022/01/27 04:03:04;;;;;;;35.38;14.35;;;6.60;76.40;;;;;;4939643;29;20417;-88
2022/01/27 04:05:42;;;;;;;36.42;17.20;;;6.60;76.50;;;;;;4939827;29;20296;-88
2022/01/27 04:08:10;;;;;;;37.15;14.65;;;6.60;77.40;;;;;;4957146;29;20173;-88
2022/01/27 04:10:53;;;;;;;35.80;14.85;;;6.50;76.80;;;;;;4956112;28;20697;-88
2022/01/27 04:13:18;;;;;;;33.13;15.23;;;6.50;76.80;;;;;;4955696;29;20177;-88
2022/01/27 04:15:45;;;;;;;37.00;15.13;;;6.60;76.90;;;;;;4955735;29;20196;-88
2022/01/27 04:18:12;;;;;;;33.70;14.63;;;6.60;76.90;;;;;;4955947;29;20653;-88
2022/01/27 04:20:39;;;;;;;36.97;15.95;;;6.70;76.80;;;;;;4955243;28;20209;-88
2022/01/27 04:23:05;;;;;;;34.80;15.15;;;6.70;76.90;;;;;;4954908;29;20641;-88
2022/01/27 04:25:31;;;;;;;41.92;17.35;;;6.50;76.80;;;;;;4955168;29;20356;-88
2022/01/27 04:28:02;;;;;;;28.90;14.20;;;6.60;76.90;;;;;;4955099;29;20673;-87
2022/01/27 04:30:28;;;;;;;36.38;16.27;;;6.70;77.10;;;;;;4938583;29;20474;-87
2022/01/27 04:32:55;;;;;;;36.10;15.50;;;6.70;77.00;;;;;;4938420;29;20244;-87
2022/01/27 04:35:23;;;;;;;36.00;15.63;;;6.70;76.90;;;;;;4938775;29;20495;-86
2022/01/27 04:38:13;;;;;;;33.42;14.70;;;6.40;76.90;;;;;;4940676;29;20193;-87
2022/01/27 04:48:22;;;;;;;41.30;16.30;;;6.40;77.50;;;;;;4943414;29;20576;-86
2022/01/27 04:50:50;;;;;;;34.33;15.77;;;6.30;77.70;;;;;;4941023;29;20217;-87
2022/01/27 04:53:26;;;;;;;46.50;16.00;;;6.30;78.00;;;;;;4943049;29;20207;-87
2022/01/27 04:55:51;;;;;;;33.90;15.15;;;6.20;78.20;;;;;;4943951;29;20189;-87
2022/01/27 04:58:25;;;;;;;42.00;18.17;;;6.10;78.70;;;;;;4945662;29;20252;-87
2022/01/27 05:00:52;;;;;;;42.92;16.23;;;6.10;78.90;;;;;;4950391;29;20465;-88
2022/01/27 05:03:32;;;;;;;40.75;18.80;;;6.10;79.30;;;;;;4948882;29;20189;-88
2022/01/27 05:05:58;;;;;;;36.00;15.73;;;6.00;79.40;;;;;;4924884;29;20225;-88
2022/01/27 05:08:24;;;;;;;41.13;17.10;;;5.90;79.60;;;;;;4920618;29;20182;-88
2022/01/27 05:10:58;;;;;;;50.25;18.83;;;5.90;80.00;;;;;;4919906;29;20586;-87
2022/01/27 05:13:26;;;;;;;44.83;19.88;;;5.90;80.20;;;;;;4921378;29;20185;-88
2022/01/27 16:49:54;;;;;;;17.30;6.68;;;9.30;89.30;;;;;;676421;23;21777;-91
2022/01/27 16:52:20;;;;;;;18.13;6.90;;;9.30;89.10;;;;;;4956957;29;20684;-90
2022/01/27 16:54:46;;;;;;;18.73;6.10;;;9.30;89.00;;;;;;4957490;28;20235;-90
2022/01/27 16:57:12;;;;;;;13.63;6.00;;;9.30;89.10;;;;;;4982249;28;20239;-90
2022/01/27 16:59:41;;;;;;;9.60;5.90;;;9.40;88.90;;;;;;4995633;28;20471;-91
2022/01/27 17:02:08;;;;;;;14.90;6.15;;;9.40;88.80;;;;;;4994232;28;20493;-91
2022/01/27 17:04:34;;;;;;;11.98;6.45;;;9.40;88.60;;;;;;4993945;28;20667;-91
2022/01/27 17:07:01;;;;;;;15.60;6.22;;;9.30;88.50;;;;;;4993542;28;20239;-91
2022/01/27 17:09:26;;;;;;;23.23;7.65;;;9.30;88.50;;;;;;4994038;28;20571;-91
2022/01/27 17:11:52;;;;;;;25.87;7.27;;;9.20;88.50;;;;;;4994376;28;20227;-90
2022/01/27 17:14:18;;;;;;;13.23;5.93;;;9.10;88.70;;;;;;4993854;28;20186;-93
2022/01/27 17:16:45;;;;;;;14.87;7.33;;;9.10;88.90;;;;;;4993622;28;20678;-90
2022/01/27 17:19:12;;;;;;;10.90;7.07;;;9.20;89.00;;;;;;4993550;28;20315;-90
2022/01/27 17:21:41;;;;;;;14.40;6.40;;;9.20;89.00;;;;;;4994062;28;20218;-91
2022/01/27 17:24:08;;;;;;;21.20;6.03;;;9.20;88.90;;;;;;4975520;28;20177;-91
2022/01/27 17:26:34;;;;;;;25.13;7.93;;;9.20;88.60;;;;;;4973807;28;20209;-91
2022/01/27 17:29:00;;;;;;;13.10;5.67;;;9.20;88.60;;;;;;4974785;28;20575;-91
2022/01/27 17:31:25;;;;;;;21.30;6.60;;;9.30;88.60;;;;;;4960235;29;20188;-91
2022/01/27 17:33:51;;;;;;;18.70;6.27;;;9.30;88.30;;;;;;4975915;28;20183;-90
2022/01/27 17:36:18;;;;;;;13.63;6.07;;;9.30;88.10;;;;;;4973817;28;20176;-92
2022/01/27 17:38:44;;;;;;;13.15;7.60;;;9.20;87.90;;;;;;4975671;28;20983;-92
2022/01/27 17:41:13;;;;;;;13.03;8.67;;;9.30;88.10;;;;;;4975437;28;20189;-91
2022/01/27 17:43:47;;;;;;;20.38;7.00;;;9.30;88.10;;;;;;4975158;28;20853;-92
2022/01/27 17:46:14;;;;;;;10.43;6.80;;;9.30;88.20;;;;;;4974935;28;20242;-91
2022/01/27 17:48:41;;;;;;;14.60;7.22;;;9.30;88.20;;;;;;4974599;28;20184;-92
2022/01/27 17:51:07;;;;;;;16.75;7.00;;;9.30;88.20;;;;;;4974513;28;20205;-91
2022/01/27 17:53:33;;;;;;;13.57;7.68;;;9.40;88.20;;;;;;4974895;28;20184;-92
2022/01/27 17:56:02;;;;;;;18.52;7.90;;;9.40;88.30;;;;;;4978337;28;20190;-91
2022/01/27 17:58:30;;;;;;;20.63;7.90;;;9.30;88.40;;;;;;4981257;28;20215;-92
2022/01/27 18:00:56;;;;;;;17.05;9.70;;;9.40;88.60;;;;;;4981365;28;20279;-92
2022/01/27 18:03:23;;;;;;;18.90;7.40;;;9.40;88.50;;;;;;4983867;28;20312;-92
2022/01/27 18:05:56;;;;;;;18.27;8.68;;;9.30;88.60;;;;;;4966511;28;20188;-91
2022/01/27 18:08:25;;;;;;;18.17;7.93;;;9.30;88.50;;;;;;4980078;28;20209;-91
2022/01/27 18:10:51;;;;;;;19.02;8.95;;;9.20;88.40;;;;;;4976798;28;20188;-91
2022/01/27 18:13:18;;;;;;;17.33;9.45;;;9.20;88.40;;;;;;4977986;28;20259;-91
2022/01/27 18:15:44;;;;;;;18.52;7.65;;;9.10;88.40;;;;;;4978537;28;20184;-91
2022/01/27 18:18:10;;;;;;;21.10;8.85;;;9.00;88.40;;;;;;4985477;28;20259;-91
2022/01/27 18:20:37;;;;;;;27.98;7.45;;;9.10;88.50;;;;;;4980754;28;20661;-91
2022/01/27 18:23:03;;;;;;;22.05;8.02;;;9.00;88.30;;;;;;4973911;28;20278;-92
2022/01/27 18:25:30;;;;;;;23.60;8.82;;;8.90;88.40;;;;;;4976037;28;20238;-92
2022/01/27 18:27:56;;;;;;;22.23;8.10;;;8.90;88.70;;;;;;4974364;28;20586;-92
2022/01/27 18:30:22;;;;;;;19.00;8.80;;;8.80;88.50;;;;;;4974430;28;20184;-91
2022/01/27 18:32:48;;;;;;;18.17;7.57;;;8.80;88.40;;;;;;4959185;28;20535;-91
2022/01/27 18:35:32;;;;;;;21.83;7.07;;;8.80;88.40;;;;;;4974198;28;20231;-90
2022/01/27 18:37:58;;;;;;;25.45;6.85;;;8.60;88.10;;;;;;4973846;28;20450;-90
2022/01/27 18:40:28;;;;;;;15.97;7.00;;;8.50;88.20;;;;;;4973367;28;20644;-90
2022/01/27 18:42:55;;;;;;;14.63;7.45;;;8.50;88.20;;;;;;4976150;28;20201;-89
2022/01/27 18:45:24;;;;;;;17.05;6.88;;;8.60;88.20;;;;;;4973817;28;20232;-89
2022/01/27 18:47:50;;;;;;;19.95;6.05;;;8.50;87.80;;;;;;4977223;28;20204;-90
2022/01/27 18:50:17;;;;;;;13.07;6.60;;;8.50;87.60;;;;;;4976367;28;20231;-90
2022/01/27 18:52:43;;;;;;;12.02;4.30;;;8.40;87.20;;;;;;4963109;28;20479;-91
2022/01/27 18:55:09;;;;;;;12.60;5.68;;;8.40;86.80;;;;;;4969184;28;20181;-90
2022/01/27 18:57:36;;;;;;;11.13;5.28;;;8.50;86.30;;;;;;4960671;28;20192;-90
2022/01/27 19:00:06;;;;;;;6.28;3.58;;;8.60;85.80;;;;;;4983310;28;20292;-91
2022/01/27 19:02:32;;;;;;;14.95;3.63;;;8.50;84.90;;;;;;4977890;28;20200;-88
2022/01/27 19:04:58;;;;;;;5.23;2.50;;;8.50;83.80;;;;;;4975281;28;20210;-87
2022/01/27 19:07:23;;;;;;;17.17;3.80;;;8.60;82.90;;;;;;4977909;28;20523;-87
2022/01/27 19:09:49;;;;;;;11.00;5.83;;;8.70;82.80;;;;;;4978690;28;20176;-86
2022/01/27 19:12:15;;;;;;;5.55;2.65;;;8.90;82.70;;;;;;4958895;28;20240;-87
2022/01/27 19:14:41;;;;;;;14.70;3.60;;;8.80;82.00;;;;;;4971922;28;20188;-87
2022/01/27 19:17:08;;;;;;;16.87;4.40;;;8.80;81.50;;;;;;4957061;28;20172;-87
2022/01/27 19:19:34;;;;;;;12.05;3.05;;;8.80;80.90;;;;;;4974038;28;20184;-87
2022/01/27 19:22:01;;;;;;;9.20;3.22;;;9.00;80.90;;;;;;4975259;28;20260;-86
2022/01/27 19:24:27;;;;;;;7.32;4.43;;;9.10;80.80;;;;;;4975985;28;20180;-87
2022/01/27 19:26:59;;;;;;;17.63;4.10;;;9.10;80.60;;;;;;4984088;28;20220;-88
2022/01/27 19:29:30;;;;;;;20.73;4.30;;;9.10;80.70;;;;;;4971198;28;20618;-87
2022/01/27 19:32:06;;;;;;;11.20;4.25;;;9.00;81.00;;;;;;4986302;28;20228;-87
2022/01/27 19:34:36;;;;;;;12.68;4.80;;;9.10;81.40;;;;;;4985883;28;20235;-86
2022/01/27 19:37:03;;;;;;;13.40;5.60;;;9.20;81.10;;;;;;4984374;28;20200;-86
2022/01/27 19:39:33;;;;;;;11.88;3.78;;;9.10;80.80;;;;;;4977345;28;20181;-88
2022/01/27 19:42:02;;;;;;;7.80;3.30;;;9.00;80.40;;;;;;4982251;28;20228;-88
2022/01/27 19:44:28;;;;;;;8.75;3.10;;;9.00;80.40;;;;;;4977094;28;20544;-88
2022/01/27 19:46:53;;;;;;;8.20;2.70;;;8.90;80.40;;;;;;4990576;28;20203;-86
2022/01/27 19:49:19;;;;;;;14.83;3.00;;;8.90;80.30;;;;;;4983541;28;20172;-89
2022/01/27 19:51:46;;;;;;;15.43;4.13;;;9.00;80.20;;;;;;4957145;28;20215;-88
2022/01/27 19:54:13;;;;;;;9.70;3.00;;;9.00;80.10;;;;;;4962716;28;20659;-88
2022/01/27 19:56:43;;;;;;;6.50;3.55;;;9.00;80.10;;;;;;4971446;28;20275;-88
2022/01/27 19:59:09;;;;;;;9.60;3.05;;;8.90;80.30;;;;;;4971165;28;20184;-88
2022/01/27 20:01:53;;;;;;;8.18;2.58;;;8.80;80.30;;;;;;4956625;28;20196;-88
2022/01/27 20:04:19;;;;;;;21.25;3.45;;;8.90;80.50;;;;;;4970046;28;20263;-89
2022/01/27 20:07:04;;;;;;;7.00;2.77;;;8.80;80.40;;;;;;4971011;28;20208;-87
2022/01/27 20:09:33;;;;;;;13.35;4.20;;;9.00;80.50;;;;;;4971532;28;20328;-87
2022/01/27 20:11:59;;;;;;;15.70;2.67;;;8.90;80.60;;;;;;4970663;28;20228;-88
2022/01/27 20:14:26;;;;;;;11.23;3.38;;;8.90;80.70;;;;;;4970679;28;20181;-88
2022/01/27 20:16:52;;;;;;;11.07;3.63;;;9.00;80.80;;;;;;4970783;28;20192;-87
2022/01/27 20:19:19;;;;;;;10.13;3.60;;;8.90;80.90;;;;;;4971035;28;20185;-88
2022/01/27 20:21:46;;;;;;;15.93;4.63;;;8.90;81.00;;;;;;4970874;28;20695;-89
2022/01/27 20:24:12;;;;;;;15.57;4.65;;;8.80;81.00;;;;;;4954262;29;20185;-88
2022/01/27 20:26:38;;;;;;;10.48;3.33;;;8.80;81.20;;;;;;4971201;28;20228;-89
2022/01/27 20:29:04;;;;;;;11.13;4.07;;;8.80;81.40;;;;;;4972694;28;20176;-89
2022/01/27 20:31:30;;;;;;;24.23;5.95;;;8.80;81.40;;;;;;4958570;29;20219;-87
2022/01/27 20:33:56;;;;;;;11.53;4.53;;;8.80;81.50;;;;;;4974024;28;20220;-89
2022/01/27 20:36:22;;;;;;;11.98;4.22;;;8.90;82.40;;;;;;4976897;28;20259;-89
2022/01/27 20:38:48;;;;;;;7.25;3.65;;;8.90;81.50;;;;;;4976626;28;20679;-88
2022/01/27 20:41:14;;;;;;;13.03;4.80;;;8.90;81.40;;;;;;4974450;28;20248;-86
2022/01/27 20:43:42;;;;;;;20.30;4.45;;;8.90;81.50;;;;;;4976474;28;20200;-87
2022/01/27 20:46:11;;;;;;;14.13;5.15;;;8.90;81.50;;;;;;4965310;28;20187;-86
2022/01/27 20:48:38;;;;;;;13.32;4.75;;;9.00;81.30;;;;;;4978139;28;20195;-87
2022/01/27 20:51:05;;;;;;;10.35;4.22;;;9.00;81.00;;;;;;4961726;28;20207;-86
2022/01/27 20:53:34;;;;;;;14.00;3.28;;;8.90;80.90;;;;;;4980273;28;20676;-88
2022/01/27 20:56:00;;;;;;;9.00;3.85;;;8.90;81.00;;;;;;4986942;28;20228;-85
2022/01/27 20:58:27;;;;;;;8.53;3.30;;;8.90;81.00;;;;;;4997393;28;20189;-86
2022/01/27 21:00:58;;;;;;;12.77;2.92;;;8.90;80.70;;;;;;4982295;28;20551;-91
2022/01/27 21:03:24;;;;;;;11.02;3.45;;;8.80;80.40;;;;;;4981369;28;20295;-86
2022/01/27 21:05:50;;;;;;;9.03;2.43;;;8.80;80.10;;;;;;4981933;28;20214;-86
2022/01/27 21:08:21;;;;;;;18.63;3.07;;;8.80;79.90;;;;;;4959260;29;20213;-85
2022/01/27 21:10:47;;;;;;;10.35;2.20;;;8.80;79.20;;;;;;4974272;28;20177;-87
2022/01/27 21:13:13;;;;;;;7.40;2.70;;;8.70;78.70;;;;;;4973831;28;20254;-86
2022/01/27 21:15:38;;;;;;;12.63;2.30;;;8.70;78.00;;;;;;4976186;28;20421;-86
2022/01/27 21:18:04;;;;;;;9.67;2.40;;;8.60;77.70;;;;;;4976260;28;20421;-84
2022/01/27 21:20:30;;;;;;;9.30;2.10;;;8.60;78.10;;;;;;4977648;28;20275;-86
2022/01/27 21:22:56;;;;;;;12.05;2.30;;;8.60;77.40;;;;;;4974552;28;20479;-86
2022/01/27 21:25:30;;;;;;;11.27;2.20;;;8.60;77.60;;;;;;4975825;28;20184;-87
2022/01/27 21:27:56;;;;;;;7.63;2.80;;;8.50;77.80;;;;;;4959015;28;20192;-86
2022/01/27 21:30:22;;;;;;;9.03;3.50;;;8.50;78.00;;;;;;4973916;28;20679;-86
2022/01/27 21:32:47;;;;;;;10.50;2.20;;;8.40;77.50;;;;;;4986226;28;20199;-88
2022/01/27 21:35:13;;;;;;;7.30;2.27;;;8.40;77.20;;;;;;4995943;28;20595;-86
2022/01/27 21:37:40;;;;;;;10.73;2.53;;;8.40;77.30;;;;;;4990683;28;20184;-86
2022/01/27 21:40:21;;;;;;;15.52;2.25;;;8.40;77.10;;;;;;4975389;28;20401;-88
2022/01/27 21:42:48;;;;;;;6.40;2.35;;;8.40;77.30;;;;;;4958963;29;20211;-86
2022/01/27 21:45:17;;;;;;;14.75;2.60;;;8.40;77.50;;;;;;4981056;28;20185;-86
2022/01/27 21:47:50;;;;;;;10.10;1.90;;;8.40;77.70;;;;;;4984119;28;20231;-84
2022/01/27 21:50:17;;;;;;;10.93;2.13;;;8.50;77.50;;;;;;4978204;28;20576;-84
2022/01/27 21:52:46;;;;;;;6.05;1.85;;;8.40;77.60;;;;;;4944258;28;20209;-87
2022/01/27 21:55:17;;;;;;;8.80;2.35;;;8.40;77.80;;;;;;4950687;29;20196;-86
2022/01/27 21:57:47;;;;;;;7.75;2.42;;;8.40;77.80;;;;;;4963296;28;20183;-88
2022/01/27 22:00:14;;;;;;;4.57;1.95;;;8.40;77.60;;;;;;4996001;28;20270;-87
2022/01/27 22:02:46;;;;;;;12.65;2.22;;;8.40;77.80;;;;;;5002846;28;20323;-88
2022/01/27 22:05:19;;;;;;;9.73;1.80;;;8.40;78.10;;;;;;5004431;28;20267;-87
2022/01/27 22:08:02;;;;;;;11.95;2.45;;;8.40;78.20;;;;;;4963338;28;20244;-86
2022/01/27 22:10:34;;;;;;;13.50;2.72;;;8.40;78.30;;;;;;4977316;28;20236;-87
2022/01/27 22:13:02;;;;;;;9.07;2.72;;;8.40;78.40;;;;;;4961642;28;20312;-87
2022/01/27 22:15:37;;;;;;;8.98;2.90;;;8.30;78.70;;;;;;4983292;28;20575;-87
2022/01/27 22:18:06;;;;;;;6.00;2.53;;;8.30;79.10;;;;;;4958701;29;20183;-87
2022/01/27 22:20:41;;;;;;;8.60;2.13;;;8.10;79.10;;;;;;4959741;29;20185;-87
2022/01/27 22:23:07;;;;;;;7.68;2.22;;;8.00;79.10;;;;;;4977760;28;20204;-87
2022/01/27 22:25:33;;;;;;;18.25;4.15;;;8.10;79.30;;;;;;4978593;28;20180;-87
2022/01/27 22:28:02;;;;;;;10.30;2.80;;;8.20;79.30;;;;;;4978885;28;20332;-87
2022/01/27 22:30:31;;;;;;;9.18;2.83;;;8.20;79.30;;;;;;4963537;29;20200;-87
2022/01/27 22:32:57;;;;;;;8.13;2.60;;;8.20;79.20;;;;;;4959824;28;20208;-86
2022/01/27 22:35:22;;;;;;;11.40;2.30;;;8.10;79.20;;;;;;4973989;28;20185;-87
2022/01/27 22:37:48;;;;;;;4.43;2.33;;;8.00;79.10;;;;;;4976105;28;20459;-87
2022/01/27 22:40:14;;;;;;;9.00;2.47;;;8.00;79.20;;;;;;4992432;28;20427;-87
2022/01/27 22:42:40;;;;;;;9.40;3.07;;;7.90;79.20;;;;;;4997221;28;20236;-88
2022/01/27 22:45:06;;;;;;;8.97;2.50;;;8.00;79.30;;;;;;4998957;28;20534;-87
2022/01/27 22:47:32;;;;;;;8.23;2.08;;;8.00;79.30;;;;;;4974893;28;20534;-87
2022/01/27 22:49:58;;;;;;;5.37;2.17;;;7.90;79.30;;;;;;4972403;28;20181;-87
2022/01/27 22:52:23;;;;;;;12.60;3.80;;;8.00;80.10;;;;;;4980172;28;20586;-87
2022/01/27 22:54:49;;;;;;;6.80;2.10;;;8.10;79.50;;;;;;4986352;28;20536;-87
2022/01/27 22:57:15;;;;;;;8.57;2.55;;;8.10;79.40;;;;;;4980351;28;20714;-85
2022/01/27 22:59:41;;;;;;;13.90;3.20;;;8.10;79.50;;;;;;4977836;28;20184;-88
2022/01/27 23:02:07;;;;;;;16.60;3.13;;;8.10;79.70;;;;;;4978306;28;20460;-86
2022/01/27 23:04:32;;;;;;;5.57;2.23;;;8.00;79.90;;;;;;4948097;28;20177;-88
2022/01/27 23:06:58;;;;;;;5.60;2.20;;;7.90;80.40;;;;;;4952452;29;20699;-87
2022/01/27 23:09:25;;;;;;;10.23;2.37;;;7.90;80.70;;;;;;4953603;29;20448;-88
2022/01/27 23:11:59;;;;;;;5.20;2.42;;;7.80;80.90;;;;;;4970182;28;20503;-88
2022/01/27 23:14:41;;;;;;;7.18;2.78;;;7.70;80.90;;;;;;4970553;28;20175;-88
2022/01/27 23:19:59;;;;;;;5.95;1.77;;;7.50;79.80;;;;;;4956066;29;20167;-88
2022/01/27 23:25:05;;;;;;;6.32;1.92;;;7.60;78.80;;;;;;4955719;28;20297;-87
2022/01/27 23:27:32;;;;;;;10.88;2.33;;;7.60;78.50;;;;;;4970979;28;20247;-88
2022/01/27 23:30:08;;;;;;;12.23;2.50;;;7.60;78.10;;;;;;4974537;28;20181;-87
2022/01/27 23:32:33;;;;;;;7.22;1.90;;;7.60;77.90;;;;;;4971549;28;20207;-88
2022/01/27 23:34:59;;;;;;;8.43;2.17;;;7.60;77.70;;;;;;4971136;28;20207;-87
2022/01/27 23:40:12;;;;;;;6.70;1.80;;;7.60;77.30;;;;;;4958496;28;20420;-87
2022/01/27 23:45:17;;;;;;;11.13;2.40;;;7.60;76.90;;;;;;4960151;28;20185;-87
2022/01/27 23:50:38;;;;;;;7.43;1.93;;;7.60;76.70;;;;;;4957185;28;20177;-87
2022/01/27 23:53:04;;;;;;;10.02;2.47;;;7.60;76.50;;;;;;4960712;28;20263;-87
2022/01/27 23:55:42;;;;;;;6.82;2.22;;;7.60;76.30;;;;;;4977500;28;20211;-88
2022/01/27 23:58:20;;;;;;;7.97;2.38;;;7.60;76.40;;;;;;4977246;28;20177;-88
